Time;durP1;ratioP1;P1;durP2;ratioP2;P2;SDS_P1;SDS_P2;PMS_P1;PMS_P2;Temp;Humidity;BMP_temperature;BMP_pressure;BME280_temperature;BME280_humidity;BME280_pressure;Samples;Min_cycle;Max_cycle;Signal;HPM_P1;HPM_P2
2023/09/18 00:01:09;;;;;;;4.60;4.20;;;;;;;;;;5006233;28;20191;-48
2023/09/18 00:03:36;;;;;;;4.37;3.97;;;;;;;;;;5008714;28;20541;-49
2023/09/18 00:06:02;;;;;;;4.30;4.00;;;;;;;;;;5001937;28;20227;-49
2023/09/18 00:08:29;;;;;;;5.97;4.17;;;;;;;;;;5004295;28;20255;-49
2023/09/18 00:10:55;;;;;;;4.60;4.30;;;;;;;;;;5005641;28;20267;-48
2023/09/18 00:13:22;;;;;;;4.63;4.23;;;;;;;;;;5007252;28;20340;-48
2023/09/18 00:15:48;;;;;;;5.37;4.20;;;;;;;;;;5006444;28;20209;-48
2023/09/18 00:18:15;;;;;;;4.50;4.10;;;;;;;;;;5007124;28;20178;-49
2023/09/18 00:20:41;;;;;;;4.13;3.83;;;;;;;;;;5003411;28;20180;-48
2023/09/18 00:23:08;;;;;;;5.17;4.63;;;;;;;;;;5006748;28;20182;-48
2023/09/18 00:25:40;;;;;;;5.77;4.40;;;;;;;;;;5007742;28;20190;-48
2023/09/18 00:28:07;;;;;;;4.50;4.07;;;;;;;;;;5008112;28;20708;-48
2023/09/18 00:30:33;;;;;;;4.80;4.27;;;;;;;;;;5007834;28;20291;-48
2023/09/18 00:32:59;;;;;;;5.67;4.83;;;;;;;;;;5007655;28;20544;-48
2023/09/18 00:35:25;;;;;;;4.37;3.97;;;;;;;;;;5007904;28;20227;-48
2023/09/18 00:37:51;;;;;;;4.40;3.90;;;;;;;;;;5006691;28;20304;-48
2023/09/18 00:40:17;;;;;;;5.00;4.50;;;;;;;;;;5005613;28;20262;-48
2023/09/18 00:42:44;;;;;;;5.40;4.90;;;;;;;;;;5007547;28;20184;-48
2023/09/18 00:45:10;;;;;;;4.67;4.30;;;;;;;;;;5008627;28;20180;-48
2023/09/18 00:47:37;;;;;;;5.00;4.13;;;;;;;;;;5007982;28;20187;-47
2023/09/18 00:50:05;;;;;;;4.90;4.50;;;;;;;;;;5005466;28;20210;-48
2023/09/18 00:52:32;;;;;;;5.90;5.37;;;;;;;;;;5006596;28;20194;-48
2023/09/18 00:55:00;;;;;;;4.23;3.93;;;;;;;;;;5007953;28;20184;-48
2023/09/18 00:57:26;;;;;;;4.93;4.47;;;;;;;;;;5007749;28;20207;-48
2023/09/18 00:59:53;;;;;;;4.67;4.37;;;;;;;;;;5007492;28;20272;-48
2023/09/18 01:02:20;;;;;;;4.40;4.10;;;;;;;;;;5006014;28;20500;-48
2023/09/18 01:04:47;;;;;;;4.50;4.10;;;;;;;;;;5007538;28;20179;-46
2023/09/18 01:07:14;;;;;;;4.80;4.40;;;;;;;;;;5006526;28;20182;-47
2023/09/18 01:09:41;;;;;;;4.67;4.27;;;;;;;;;;5007851;28;20532;-47
2023/09/18 01:12:21;;;;;;;4.70;4.37;;;;;;;;;;5006822;28;20194;-49
2023/09/18 01:15:08;;;;;;;4.80;4.37;;;;;;;;;;5002975;28;20620;-48
2023/09/18 01:17:40;;;;;;;5.40;4.30;;;;;;;;;;5000746;28;20207;-48
2023/09/18 01:20:10;;;;;;;4.60;4.20;;;;;;;;;;5007495;28;20170;-49
2023/09/18 01:22:36;;;;;;;5.13;4.63;;;;;;;;;;5006063;28;20180;-48
2023/09/18 01:25:02;;;;;;;4.53;4.13;;;;;;;;;;5007019;28;20651;-48
2023/09/18 01:27:29;;;;;;;4.67;4.30;;;;;;;;;;5006762;28;20237;-48
2023/09/18 01:29:55;;;;;;;5.13;4.63;;;;;;;;;;4988963;28;20656;-47
2023/09/18 01:32:25;;;;;;;5.17;4.30;;;;;;;;;;5007400;28;20197;-48
2023/09/18 01:34:53;;;;;;;7.43;4.73;;;;;;;;;;5007150;28;20175;-48
2023/09/18 01:37:27;;;;;;;4.50;4.10;;;;;;;;;;5005414;28;20249;-48
2023/09/18 01:39:54;;;;;;;4.87;4.47;;;;;;;;;;5007558;28;20187;-48
2023/09/18 01:42:21;;;;;;;4.47;4.07;;;;;;;;;;5006655;28;20197;-48
2023/09/18 01:44:48;;;;;;;5.27;4.27;;;;;;;;;;5007421;28;20321;-49
2023/09/18 01:47:18;;;;;;;4.47;4.17;;;;;;;;;;5004930;28;20195;-48
2023/09/18 01:49:46;;;;;;;4.77;4.37;;;;;;;;;;5001981;28;20536;-48
2023/09/18 01:52:12;;;;;;;4.23;3.83;;;;;;;;;;5002214;28;20329;-50
2023/09/18 01:54:38;;;;;;;5.20;4.77;;;;;;;;;;5007846;28;20607;-47
2023/09/18 01:57:07;;;;;;;4.83;4.43;;;;;;;;;;4989181;28;20209;-48
2023/09/18 01:59:33;;;;;;;7.03;4.93;;;;;;;;;;5006879;28;20637;-50
2023/09/18 02:02:00;;;;;;;4.13;3.83;;;;;;;;;;5007363;28;20178;-49
2023/09/18 02:04:27;;;;;;;4.97;4.60;;;;;;;;;;5007091;28;20190;-48
2023/09/18 02:06:53;;;;;;;5.03;4.63;;;;;;;;;;5006855;28;20189;-48
2023/09/18 02:09:19;;;;;;;4.30;4.00;;;;;;;;;;5006012;28;20480;-49
2023/09/18 02:11:46;;;;;;;4.67;4.27;;;;;;;;;;5006901;28;20210;-48
2023/09/18 02:14:12;;;;;;;4.33;4.03;;;;;;;;;;5007277;28;20246;-50
2023/09/18 02:16:43;;;;;;;7.70;4.90;;;;;;;;;;5005861;28;20579;-50
2023/09/18 02:19:09;;;;;;;4.53;4.17;;;;;;;;;;5007539;28;20187;-49
2023/09/18 02:21:39;;;;;;;5.27;4.87;;;;;;;;;;5005797;28;20202;-49
2023/09/18 02:24:06;;;;;;;5.37;4.97;;;;;;;;;;5005832;28;20266;-50
2023/09/18 02:26:32;;;;;;;6.87;4.20;;;;;;;;;;5006976;28;20187;-48
2023/09/18 02:29:04;;;;;;;5.10;4.47;;;;;;;;;;5007082;28;20218;-49
2023/09/18 02:31:30;;;;;;;5.60;4.73;;;;;;;;;;5006372;28;20211;-49
2023/09/18 02:33:56;;;;;;;4.73;4.27;;;;;;;;;;5006617;28;20193;-48
2023/09/18 02:36:22;;;;;;;4.23;3.90;;;;;;;;;;5005513;28;20207;-49
2023/09/18 02:38:48;;;;;;;4.63;4.23;;;;;;;;;;5005376;28;20636;-51
2023/09/18 02:41:14;;;;;;;5.13;4.63;;;;;;;;;;5009142;28;20175;-49
2023/09/18 02:43:40;;;;;;;5.07;4.57;;;;;;;;;;5008257;28;20282;-49
2023/09/18 02:46:07;;;;;;;5.40;4.80;;;;;;;;;;5009836;28;20187;-49
2023/09/18 02:48:33;;;;;;;4.77;4.37;;;;;;;;;;5001811;28;20673;-49
2023/09/18 02:51:00;;;;;;;4.67;4.37;;;;;;;;;;5007592;28;20197;-49
2023/09/18 02:53:28;;;;;;;4.90;4.50;;;;;;;;;;5010089;28;20638;-49
2023/09/18 02:55:56;;;;;;;5.27;4.50;;;;;;;;;;5003254;28;20289;-48
2023/09/18 02:58:25;;;;;;;5.10;4.70;;;;;;;;;;5010543;28;20190;-49
2023/09/18 03:00:52;;;;;;;7.03;5.07;;;;;;;;;;5010031;28;20183;-51
2023/09/18 03:03:18;;;;;;;8.10;6.50;;;;;;;;;;5009413;28;20182;-49
2023/09/18 03:05:45;;;;;;;5.53;5.03;;;;;;;;;;5009354;28;20467;-52
2023/09/18 03:08:11;;;;;;;5.10;4.60;;;;;;;;;;5009021;28;20190;-50
2023/09/18 03:10:42;;;;;;;5.57;4.93;;;;;;;;;;5009603;28;20621;-50
2023/09/18 03:13:09;;;;;;;6.97;5.37;;;;;;;;;;5009185;28;20612;-49
2023/09/18 03:15:35;;;;;;;5.43;4.67;;;;;;;;;;5010278;28;20700;-50
2023/09/18 03:18:02;;;;;;;6.03;4.97;;;;;;;;;;5008970;28;20278;-50
2023/09/18 03:20:29;;;;;;;5.80;4.63;;;;;;;;;;5009122;28;20289;-48
2023/09/18 03:22:56;;;;;;;8.90;4.93;;;;;;;;;;5008989;28;20182;-50
2023/09/18 03:25:23;;;;;;;6.97;4.90;;;;;;;;;;5009280;28;20669;-50
2023/09/18 03:27:49;;;;;;;5.07;4.57;;;;;;;;;;5009938;28;20182;-49
2023/09/18 03:30:15;;;;;;;6.40;4.60;;;;;;;;;;5009331;28;20238;-50
2023/09/18 03:32:42;;;;;;;8.47;5.27;;;;;;;;;;5001815;28;20232;-49
2023/09/18 03:35:17;;;;;;;7.63;4.60;;;;;;;;;;5009388;28;20171;-49
2023/09/18 03:37:56;;;;;;;5.07;4.53;;;;;;;;;;5007368;28;20209;-48
2023/09/18 03:40:23;;;;;;;8.10;5.93;;;;;;;;;;5009219;28;20270;-49
2023/09/18 03:42:49;;;;;;;7.93;5.10;;;;;;;;;;4990384;28;20179;-49
2023/09/18 03:45:18;;;;;;;4.63;4.27;;;;;;;;;;5009483;28;20186;-48
2023/09/18 03:47:44;;;;;;;6.83;5.20;;;;;;;;;;5009471;28;20174;-49
2023/09/18 03:50:14;;;;;;;7.07;4.60;;;;;;;;;;5008430;28;20179;-48
2023/09/18 03:52:41;;;;;;;6.07;5.03;;;;;;;;;;5007804;28;20214;-49
2023/09/18 03:55:08;;;;;;;5.97;5.00;;;;;;;;;;5008799;28;20182;-49
2023/09/18 03:57:34;;;;;;;7.23;5.37;;;;;;;;;;5008150;28;20261;-49
2023/09/18 04:00:00;;;;;;;6.37;5.77;;;;;;;;;;5009023;28;20190;-49
2023/09/18 04:02:26;;;;;;;5.20;4.00;;;;;;;;;;5007940;28;20197;-49
2023/09/18 04:04:54;;;;;;;6.83;4.43;;;;;;;;;;5007216;28;20207;-48
2023/09/18 04:07:21;;;;;;;5.53;5.03;;;;;;;;;;5007108;28;20592;-48
2023/09/18 04:09:47;;;;;;;7.13;4.60;;;;;;;;;;5004210;28;20241;-48
2023/09/18 04:12:13;;;;;;;5.83;4.80;;;;;;;;;;5005757;28;20256;-48
2023/09/18 04:14:39;;;;;;;4.67;4.27;;;;;;;;;;5008754;28;20322;-47
2023/09/18 04:17:05;;;;;;;5.63;4.00;;;;;;;;;;5005885;28;20619;-49
2023/09/18 04:19:31;;;;;;;6.17;4.40;;;;;;;;;;5004437;28;20198;-49
2023/09/18 04:21:58;;;;;;;5.83;4.13;;;;;;;;;;5003671;28;20295;-50
2023/09/18 04:24:24;;;;;;;4.60;4.20;;;;;;;;;;5008153;28;20632;-48
2023/09/18 04:26:53;;;;;;;5.73;4.40;;;;;;;;;;5003744;28;20191;-48
2023/09/18 04:29:20;;;;;;;8.83;4.97;;;;;;;;;;5007978;28;20243;-49
2023/09/18 04:31:47;;;;;;;5.20;4.27;;;;;;;;;;5006670;28;20247;-49
2023/09/18 04:34:13;;;;;;;6.60;4.37;;;;;;;;;;5005663;28;20256;-49
2023/09/18 04:36:39;;;;;;;5.93;5.27;;;;;;;;;;5005575;28;20232;-47
2023/09/18 04:39:06;;;;;;;4.93;4.40;;;;;;;;;;5005112;28;20189;-48
2023/09/18 04:41:32;;;;;;;5.83;4.37;;;;;;;;;;5007274;28;20215;-46
2023/09/18 04:43:58;;;;;;;5.67;4.13;;;;;;;;;;5006772;28;20207;-48
2023/09/18 04:46:24;;;;;;;5.03;4.40;;;;;;;;;;5001321;28;20203;-49
2023/09/18 04:48:51;;;;;;;5.23;4.73;;;;;;;;;;5008589;28;20187;-48
2023/09/18 04:51:17;;;;;;;7.40;4.70;;;;;;;;;;5004895;28;20279;-48
2023/09/18 04:53:52;;;;;;;6.67;4.87;;;;;;;;;;5005548;28;20622;-48
2023/09/18 04:56:19;;;;;;;6.83;6.13;;;;;;;;;;5007364;28;20275;-49
2023/09/18 04:58:45;;;;;;;5.60;4.97;;;;;;;;;;5004059;28;20554;-48
2023/09/18 05:01:11;;;;;;;6.67;4.70;;;;;;;;;;4988593;28;20191;-49
2023/09/18 05:03:38;;;;;;;5.67;4.43;;;;;;;;;;5005057;28;20586;-48
2023/09/18 05:06:04;;;;;;;6.47;4.90;;;;;;;;;;5006684;28;20184;-49
2023/09/18 05:08:31;;;;;;;5.50;4.97;;;;;;;;;;5006165;28;20191;-48
2023/09/18 05:10:57;;;;;;;5.03;4.53;;;;;;;;;;5007351;28;20183;-48
2023/09/18 05:13:23;;;;;;;7.07;4.60;;;;;;;;;;5007060;28;20214;-50
2023/09/18 05:15:50;;;;;;;5.43;4.73;;;;;;;;;;5004916;28;20318;-47
2023/09/18 05:18:16;;;;;;;5.23;4.73;;;;;;;;;;5006984;28;20180;-47
2023/09/18 05:20:45;;;;;;;8.65;4.60;;;;;;;;;;5000433;28;20462;-49
2023/09/18 05:23:11;;;;;;;6.63;4.53;;;;;;;;;;5005184;28;20231;-48
2023/09/18 05:25:38;;;;;;;8.03;4.57;;;;;;;;;;5007350;28;20561;-48
2023/09/18 05:28:05;;;;;;;6.47;4.37;;;;;;;;;;5001711;28;20228;-47
2023/09/18 05:30:34;;;;;;;8.47;5.17;;;;;;;;;;5005123;28;20345;-48
2023/09/18 05:33:04;;;;;;;7.63;4.90;;;;;;;;;;5000439;28;20514;-48
2023/09/18 05:35:43;;;;;;;6.80;5.10;;;;;;;;;;5000184;28;20222;-48
2023/09/18 05:38:10;;;;;;;8.23;5.03;;;;;;;;;;4997305;28;20304;-47
2023/09/18 05:40:36;;;;;;;6.67;4.93;;;;;;;;;;5001089;28;20206;-48
2023/09/18 05:43:03;;;;;;;7.37;5.17;;;;;;;;;;5005205;28;20182;-47
2023/09/18 05:45:30;;;;;;;8.73;5.43;;;;;;;;;;5005378;28;20212;-47
2023/09/18 05:48:03;;;;;;;8.27;5.60;;;;;;;;;;5006859;28;20183;-47
2023/09/18 05:50:31;;;;;;;9.07;5.87;;;;;;;;;;5006279;28;20515;-48
2023/09/18 05:53:02;;;;;;;7.63;5.10;;;;;;;;;;5006527;28;20179;-48
2023/09/18 05:55:28;;;;;;;6.83;4.70;;;;;;;;;;5006888;28;20649;-46
2023/09/18 05:57:55;;;;;;;5.63;4.67;;;;;;;;;;5006281;28;20642;-47
2023/09/18 06:00:21;;;;;;;7.03;4.57;;;;;;;;;;5005512;28;20175;-47
2023/09/18 06:02:48;;;;;;;10.80;4.90;;;;;;;;;;5005579;28;20682;-48
2023/09/18 06:05:15;;;;;;;11.57;5.20;;;;;;;;;;5006107;28;20248;-48
2023/09/18 06:07:42;;;;;;;8.33;5.43;;;;;;;;;;5005629;28;20209;-48
2023/09/18 06:10:08;;;;;;;9.20;5.00;;;;;;;;;;5004684;28;20517;-49
2023/09/18 06:12:34;;;;;;;5.73;4.07;;;;;;;;;;5006676;28;20255;-47
2023/09/18 06:15:00;;;;;;;7.20;4.77;;;;;;;;;;5010366;28;20179;-45
2023/09/18 06:17:27;;;;;;;11.23;5.20;;;;;;;;;;5010253;28;20204;-46
2023/09/18 06:19:53;;;;;;;9.30;4.67;;;;;;;;;;5010167;28;20191;-47
2023/09/18 06:22:19;;;;;;;12.20;4.43;;;;;;;;;;5006079;28;20179;-47
2023/09/18 06:24:46;;;;;;;8.87;4.50;;;;;;;;;;5011011;28;20174;-47
2023/09/18 06:27:12;;;;;;;7.43;4.20;;;;;;;;;;5009623;28;20752;-47
2023/09/18 06:29:39;;;;;;;7.63;4.73;;;;;;;;;;5009766;28;20237;-47
2023/09/18 06:32:06;;;;;;;7.50;4.20;;;;;;;;;;5008272;28;20183;-48
2023/09/18 06:34:32;;;;;;;8.63;4.20;;;;;;;;;;5011126;28;20202;-48
2023/09/18 06:36:58;;;;;;;5.40;4.00;;;;;;;;;;5009711;28;20215;-49
2023/09/18 06:39:25;;;;;;;7.67;4.03;;;;;;;;;;5010785;28;20188;-48
2023/09/18 06:41:52;;;;;;;5.93;3.80;;;;;;;;;;5010970;28;20181;-48
2023/09/18 06:44:18;;;;;;;9.17;4.77;;;;;;;;;;5010807;28;20232;-48
2023/09/18 06:46:44;;;;;;;7.97;4.70;;;;;;;;;;5010884;28;20206;-47
2023/09/18 06:49:10;;;;;;;6.20;3.90;;;;;;;;;;5010003;28;20197;-47
2023/09/18 06:51:37;;;;;;;8.27;3.90;;;;;;;;;;5009777;28;20187;-49
2023/09/18 06:54:03;;;;;;;5.07;4.00;;;;;;;;;;5006741;28;20193;-49
2023/09/18 06:56:29;;;;;;;5.43;3.87;;;;;;;;;;5010023;28;20649;-48
2023/09/18 06:58:56;;;;;;;7.90;4.10;;;;;;;;;;5002611;28;20187;-47
2023/09/18 07:01:24;;;;;;;9.33;3.73;;;;;;;;;;5007959;28;20664;-49
2023/09/18 07:03:50;;;;;;;8.30;4.33;;;;;;;;;;5002383;28;20199;-47
2023/09/18 07:06:18;;;;;;;7.93;3.73;;;;;;;;;;5009108;28;20268;-48
2023/09/18 07:08:44;;;;;;;6.30;3.23;;;;;;;;;;5008801;28;20179;-47
2023/09/18 07:11:11;;;;;;;5.07;3.23;;;;;;;;;;5009526;28;20181;-47
2023/09/18 07:13:38;;;;;;;7.53;3.17;;;;;;;;;;5007826;28;20179;-47
2023/09/18 07:16:05;;;;;;;4.33;3.10;;;;;;;;;;5009112;28;20527;-51
2023/09/18 07:18:31;;;;;;;8.87;3.43;;;;;;;;;;5005127;28;20182;-48
2023/09/18 07:20:57;;;;;;;4.73;3.00;;;;;;;;;;5007670;28;20182;-49
2023/09/18 07:23:23;;;;;;;4.93;3.30;;;;;;;;;;5009069;28;20195;-49
2023/09/18 07:25:49;;;;;;;5.30;3.20;;;;;;;;;;5007953;28;20206;-49
2023/09/18 07:28:17;;;;;;;4.10;2.87;;;;;;;;;;5009471;28;20185;-51
2023/09/18 07:30:47;;;;;;;5.37;3.10;;;;;;;;;;5008133;28;20222;-50
2023/09/18 07:33:16;;;;;;;5.53;3.23;;;;;;;;;;5008325;28;20178;-49
2023/09/18 07:35:43;;;;;;;5.90;2.73;;;;;;;;;;4996140;28;20176;-51
2023/09/18 07:38:09;;;;;;;6.33;3.60;;;;;;;;;;5010011;28;20177;-49
2023/09/18 07:40:44;;;;;;;5.10;2.97;;;;;;;;;;5009316;28;20163;-50
2023/09/18 07:43:10;;;;;;;8.20;3.17;;;;;;;;;;5005557;28;20167;-50
2023/09/18 07:45:39;;;;;;;4.57;2.80;;;;;;;;;;5008228;28;20206;-51
2023/09/18 07:48:06;;;;;;;3.60;2.97;;;;;;;;;;5006363;28;20185;-48
2023/09/18 07:50:33;;;;;;;5.20;2.53;;;;;;;;;;5003389;28;20604;-49
2023/09/18 07:52:59;;;;;;;3.63;2.20;;;;;;;;;;4999488;28;20635;-49
2023/09/18 07:55:26;;;;;;;4.17;2.90;;;;;;;;;;5003807;28;20304;-50
2023/09/18 07:57:53;;;;;;;4.67;3.10;;;;;;;;;;5005390;28;20189;-50
2023/09/18 08:00:22;;;;;;;4.27;2.73;;;;;;;;;;5004933;28;20183;-50
2023/09/18 08:02:50;;;;;;;7.63;2.60;;;;;;;;;;5004397;28;20187;-49
2023/09/18 08:05:16;;;;;;;5.07;2.57;;;;;;;;;;5012564;28;20626;-49
2023/09/18 08:07:42;;;;;;;2.80;2.53;;;;;;;;;;5006898;28;20239;-48
2023/09/18 08:10:09;;;;;;;4.47;2.80;;;;;;;;;;5008884;28;20226;-49
2023/09/18 08:12:36;;;;;;;2.33;2.17;;;;;;;;;;5005212;28;20202;-49
2023/09/18 08:15:02;;;;;;;4.33;2.50;;;;;;;;;;5008443;28;20543;-48
2023/09/18 08:17:29;;;;;;;4.93;2.20;;;;;;;;;;5007398;28;20202;-49
2023/09/18 08:19:55;;;;;;;4.13;2.23;;;;;;;;;;5007902;28;20225;-50
2023/09/18 08:22:22;;;;;;;3.03;2.30;;;;;;;;;;5006356;28;20213;-51
2023/09/18 08:24:48;;;;;;;3.77;2.10;;;;;;;;;;5007763;28;20557;-50
2023/09/18 08:27:17;;;;;;;4.67;2.20;;;;;;;;;;5008169;28;20190;-50
2023/09/18 08:29:44;;;;;;;3.70;2.50;;;;;;;;;;5006019;28;20679;-49
2023/09/18 08:32:10;;;;;;;3.47;2.60;;;;;;;;;;5005264;28;20358;-50
2023/09/18 08:34:36;;;;;;;3.40;2.30;;;;;;;;;;5007681;28;20186;-51
2023/09/18 08:37:03;;;;;;;3.37;2.73;;;;;;;;;;5002092;28;20202;-50
2023/09/18 08:39:29;;;;;;;2.87;2.43;;;;;;;;;;5007079;28;20218;-49
2023/09/18 08:41:58;;;;;;;3.40;2.40;;;;;;;;;;5002716;28;20186;-49
2023/09/18 08:44:27;;;;;;;4.33;2.43;;;;;;;;;;5008394;28;20184;-49
2023/09/18 08:46:54;;;;;;;3.47;2.50;;;;;;;;;;5007076;28;20193;-47
2023/09/18 08:49:21;;;;;;;3.63;2.10;;;;;;;;;;5006690;28;20180;-51
2023/09/18 08:51:48;;;;;;;3.37;2.50;;;;;;;;;;5007944;28;20188;-48
2023/09/18 08:54:15;;;;;;;2.87;2.23;;;;;;;;;;4987491;28;20189;-49
2023/09/18 08:56:41;;;;;;;2.43;2.23;;;;;;;;;;5007301;28;20205;-48
2023/09/18 08:59:08;;;;;;;2.20;2.00;;;;;;;;;;5007642;28;20175;-48
2023/09/18 09:01:34;;;;;;;2.73;2.03;;;;;;;;;;5007358;28;20648;-47
2023/09/18 09:04:00;;;;;;;2.30;2.10;;;;;;;;;;5008101;28;20190;-48
2023/09/18 09:06:26;;;;;;;3.10;2.27;;;;;;;;;;5006242;28;20191;-46
2023/09/18 09:08:52;;;;;;;3.20;2.27;;;;;;;;;;5006693;28;20246;-46
2023/09/18 09:11:19;;;;;;;2.73;1.97;;;;;;;;;;5003787;28;20188;-46
2023/09/18 09:13:48;;;;;;;4.03;2.50;;;;;;;;;;5006891;28;20224;-47
2023/09/18 09:16:17;;;;;;;4.63;2.37;;;;;;;;;;5007149;28;21741;-47
2023/09/18 09:18:50;;;;;;;4.80;2.67;;;;;;;;;;5006761;28;20180;-46
2023/09/18 09:21:16;;;;;;;2.53;2.10;;;;;;;;;;5006247;28;20185;-47
2023/09/18 09:23:51;;;;;;;2.50;2.30;;;;;;;;;;5006373;28;20240;-47
2023/09/18 09:26:18;;;;;;;2.43;2.23;;;;;;;;;;5005549;28;20197;-47
2023/09/18 09:28:45;;;;;;;4.23;2.17;;;;;;;;;;4997877;28;20235;-47
2023/09/18 09:31:11;;;;;;;2.90;2.07;;;;;;;;;;5004646;28;20564;-49
2023/09/18 09:33:41;;;;;;;1.90;1.80;;;;;;;;;;5007146;28;20182;-47
2023/09/18 09:36:07;;;;;;;2.60;2.10;;;;;;;;;;5007000;28;20228;-47
2023/09/18 09:38:34;;;;;;;5.33;2.17;;;;;;;;;;5005783;28;20191;-47
2023/09/18 09:41:06;;;;;;;3.13;1.93;;;;;;;;;;4989949;28;20173;-48
2023/09/18 09:43:33;;;;;;;2.50;2.30;;;;;;;;;;5006766;28;20186;-49
2023/09/18 09:46:01;;;;;;;2.57;2.13;;;;;;;;;;5002937;28;20175;-47
2023/09/18 09:48:31;;;;;;;4.33;2.87;;;;;;;;;;4995194;28;20184;-48
2023/09/18 09:51:01;;;;;;;3.15;2.38;;;;;;;;;;5001113;28;20977;-47
2023/09/18 09:53:50;;;;;;;6.93;2.70;;;;;;;;;;4996768;28;20585;-49
2023/09/18 09:56:21;;;;;;;3.40;2.30;;;;;;;;;;4999215;28;20676;-49
2023/09/18 09:59:08;;;;;;;2.83;2.00;;;;;;;;;;4998935;28;20636;-49
2023/09/18 10:01:34;;;;;;;2.17;1.90;;;;;;;;;;5001783;28;20170;-49
2023/09/18 10:04:04;;;;;;;3.53;2.60;;;;;;;;;;5004364;28;20176;-50
2023/09/18 10:06:34;;;;;;;3.40;2.33;;;;;;;;;;4998982;28;20213;-50
2023/09/18 10:09:00;;;;;;;2.97;2.33;;;;;;;;;;4984134;28;20172;-48
2023/09/18 10:11:28;;;;;;;2.30;2.10;;;;;;;;;;5002713;28;20174;-50
2023/09/18 10:13:56;;;;;;;4.73;2.63;;;;;;;;;;5004627;28;20604;-49
2023/09/18 10:16:27;;;;;;;6.77;2.93;;;;;;;;;;5005005;28;20294;-48
2023/09/18 10:19:11;;;;;;;2.13;1.93;;;;;;;;;;5001122;28;20187;-49
2023/09/18 10:21:44;;;;;;;2.50;2.30;;;;;;;;;;4992294;28;20183;-48
2023/09/18 10:24:15;;;;;;;7.70;2.33;;;;;;;;;;5004932;28;20545;-48
2023/09/18 10:26:48;;;;;;;2.07;1.93;;;;;;;;;;5006918;28;20651;-49
2023/09/18 10:29:18;;;;;;;2.37;2.17;;;;;;;;;;5003288;28;20239;-52
2023/09/18 10:31:45;;;;;;;5.47;2.53;;;;;;;;;;5006933;28;20266;-48
2023/09/18 10:34:13;;;;;;;3.10;2.27;;;;;;;;;;5006171;28;20582;-50
2023/09/18 10:36:39;;;;;;;2.37;2.17;;;;;;;;;;5005951;28;20224;-48
2023/09/18 10:39:10;;;;;;;4.60;2.73;;;;;;;;;;5004275;28;20186;-49
2023/09/18 10:41:37;;;;;;;3.00;2.47;;;;;;;;;;5001340;28;20193;-50
2023/09/18 10:44:04;;;;;;;3.13;2.10;;;;;;;;;;5003920;28;20265;-50
2023/09/18 10:46:30;;;;;;;3.47;2.30;;;;;;;;;;5001415;28;20194;-50
2023/09/18 10:48:57;;;;;;;2.93;2.23;;;;;;;;;;5006141;28;20213;-50
2023/09/18 10:51:24;;;;;;;3.93;2.37;;;;;;;;;;5007929;28;20229;-48
2023/09/18 10:53:52;;;;;;;4.87;2.70;;;;;;;;;;5007932;28;20182;-49
2023/09/18 10:56:20;;;;;;;4.47;2.57;;;;;;;;;;5007750;28;20257;-48
2023/09/18 10:58:46;;;;;;;2.90;2.20;;;;;;;;;;5008464;28;20159;-49
2023/09/18 11:01:13;;;;;;;3.10;2.47;;;;;;;;;;5009995;28;20183;-51
2023/09/18 11:03:39;;;;;;;4.57;2.70;;;;;;;;;;5008857;28;20654;-50
2023/09/18 11:06:12;;;;;;;2.93;2.33;;;;;;;;;;5003571;28;20681;-49
2023/09/18 11:08:49;;;;;;;2.90;2.40;;;;;;;;;;5010716;28;20249;-51
2023/09/18 11:11:20;;;;;;;4.57;2.37;;;;;;;;;;5010383;28;20668;-49
2023/09/18 11:13:53;;;;;;;4.33;3.00;;;;;;;;;;4993176;28;20190;-49
2023/09/18 11:16:20;;;;;;;4.07;2.90;;;;;;;;;;4992950;28;20716;-50
2023/09/18 11:18:54;;;;;;;2.90;2.53;;;;;;;;;;5011352;28;20162;-49
2023/09/18 11:21:27;;;;;;;2.40;2.20;;;;;;;;;;5010401;28;20660;-48
2023/09/18 11:24:03;;;;;;;3.20;2.70;;;;;;;;;;5008476;28;20189;-48
2023/09/18 11:26:37;;;;;;;6.70;2.63;;;;;;;;;;5000939;28;20257;-50
2023/09/18 11:29:09;;;;;;;3.10;2.80;;;;;;;;;;5010243;28;20265;-50
2023/09/18 11:31:44;;;;;;;3.30;2.40;;;;;;;;;;5011469;28;20555;-50
2023/09/18 11:34:16;;;;;;;4.60;2.53;;;;;;;;;;5010266;28;20177;-49
2023/09/18 11:36:42;;;;;;;4.40;2.20;;;;;;;;;;5009979;28;20214;-50
2023/09/18 11:39:11;;;;;;;4.00;2.40;;;;;;;;;;5010151;28;20179;-51
2023/09/18 11:41:38;;;;;;;3.43;2.53;;;;;;;;;;5009215;28;20183;-50
2023/09/18 11:44:13;;;;;;;3.43;2.33;;;;;;;;;;5007487;28;20231;-49
2023/09/18 11:46:46;;;;;;;3.17;2.50;;;;;;;;;;4997004;28;20202;-50
2023/09/18 11:49:12;;;;;;;3.43;2.50;;;;;;;;;;4998266;28;20180;-50
2023/09/18 11:51:38;;;;;;;3.33;2.53;;;;;;;;;;5005599;28;20203;-50
2023/09/18 11:54:06;;;;;;;4.87;2.60;;;;;;;;;;5003911;28;20184;-49
2023/09/18 11:56:35;;;;;;;2.57;2.37;;;;;;;;;;4994925;28;20204;-50
2023/09/18 11:59:04;;;;;;;3.80;2.60;;;;;;;;;;5010706;28;20269;-50
2023/09/18 12:01:35;;;;;;;3.27;2.47;;;;;;;;;;5010470;28;20171;-52
2023/09/18 12:04:09;;;;;;;2.90;2.60;;;;;;;;;;5010768;28;20167;-49
2023/09/18 12:06:42;;;;;;;3.83;2.83;;;;;;;;;;5010488;28;20260;-49
2023/09/18 12:09:08;;;;;;;4.73;2.23;;;;;;;;;;5009596;28;20185;-49
2023/09/18 12:11:35;;;;;;;2.97;2.10;;;;;;;;;;5007655;28;20626;-50
2023/09/18 12:14:05;;;;;;;2.87;2.53;;;;;;;;;;4990878;28;20566;-49
2023/09/18 12:16:31;;;;;;;4.87;2.50;;;;;;;;;;5004961;28;20492;-49
2023/09/18 12:18:59;;;;;;;2.67;2.10;;;;;;;;;;5010101;28;20561;-48
2023/09/18 12:21:25;;;;;;;5.60;2.17;;;;;;;;;;5009532;28;20180;-49
2023/09/18 12:23:54;;;;;;;2.80;2.43;;;;;;;;;;5009413;28;20181;-50
2023/09/18 12:26:20;;;;;;;2.73;2.13;;;;;;;;;;5010178;28;20169;-49
2023/09/18 12:28:46;;;;;;;5.13;2.17;;;;;;;;;;5007461;28;20546;-50
2023/09/18 12:31:16;;;;;;;4.00;2.40;;;;;;;;;;5008916;28;20248;-50
2023/09/18 12:33:43;;;;;;;2.60;2.40;;;;;;;;;;4997572;28;20596;-49
2023/09/18 12:36:10;;;;;;;6.37;2.50;;;;;;;;;;4989744;28;20284;-49
2023/09/18 12:38:36;;;;;;;2.57;2.30;;;;;;;;;;5007781;28;20175;-49
2023/09/18 12:41:06;;;;;;;3.73;3.33;;;;;;;;;;5010054;28;20197;-49
2023/09/18 12:43:37;;;;;;;4.90;2.50;;;;;;;;;;5008227;28;20193;-53
2023/09/18 12:46:05;;;;;;;3.30;2.57;;;;;;;;;;4972720;28;20194;-52
2023/09/18 12:48:31;;;;;;;3.60;2.40;;;;;;;;;;5002320;28;20171;-53
2023/09/18 12:51:05;;;;;;;2.93;2.63;;;;;;;;;;5009253;28;20182;-53
2023/09/18 12:53:31;;;;;;;6.70;2.27;;;;;;;;;;5009039;28;20174;-54
2023/09/18 12:56:05;;;;;;;2.80;2.50;;;;;;;;;;5003767;28;20178;-52
2023/09/18 12:58:32;;;;;;;2.97;2.53;;;;;;;;;;5001742;28;20205;-52
2023/09/18 13:00:58;;;;;;;4.73;2.57;;;;;;;;;;5005139;28;20163;-53
2023/09/18 13:03:24;;;;;;;2.83;2.25;;;;;;;;;;5005858;28;20685;-52
2023/09/18 13:05:54;;;;;;;4.05;2.30;;;;;;;;;;5005891;28;20197;-52
2023/09/18 13:08:23;;;;;;;4.23;2.47;;;;;;;;;;5006444;28;20171;-53
2023/09/18 13:10:50;;;;;;;2.60;2.40;;;;;;;;;;5004205;28;20668;-53
2023/09/18 13:13:20;;;;;;;2.75;2.50;;;;;;;;;;5006468;28;20538;-52
2023/09/18 13:15:47;;;;;;;2.90;2.60;;;;;;;;;;5007395;28;20583;-53
2023/09/18 13:18:14;;;;;;;5.00;2.72;;;;;;;;;;5007224;28;20213;-51
2023/09/18 13:20:40;;;;;;;2.35;2.13;;;;;;;;;;4999284;28;20175;-52
2023/09/18 13:23:07;;;;;;;2.75;2.55;;;;;;;;;;5005481;28;20650;-52
2023/09/18 13:25:34;;;;;;;3.60;2.50;;;;;;;;;;5007244;28;20179;-53
2023/09/18 13:28:01;;;;;;;4.82;2.60;;;;;;;;;;5007318;28;20182;-52
2023/09/18 13:30:27;;;;;;;3.42;2.50;;;;;;;;;;5007327;28;20312;-53
2023/09/18 13:33:03;;;;;;;5.60;2.38;;;;;;;;;;5007473;28;20693;-53
2023/09/18 13:35:30;;;;;;;3.72;2.60;;;;;;;;;;5007026;28;20178;-52
2023/09/18 13:37:56;;;;;;;2.50;2.20;;;;;;;;;;5008302;28;20203;-53
2023/09/18 13:40:22;;;;;;;3.50;2.33;;;;;;;;;;5003493;28;20182;-51
2023/09/18 13:42:49;;;;;;;3.95;2.83;;;;;;;;;;5006753;28;20520;-52
2023/09/18 13:45:18;;;;;;;2.70;2.17;;;;;;;;;;5006345;28;20186;-52
2023/09/18 13:47:44;;;;;;;3.40;2.28;;;;;;;;;;5006981;28;20183;-53
2023/09/18 13:50:13;;;;;;;3.35;2.58;;;;;;;;;;5006517;28;20531;-52
2023/09/18 13:52:39;;;;;;;5.30;2.50;;;;;;;;;;5002840;28;20175;-53
2023/09/18 13:55:05;;;;;;;3.67;2.47;;;;;;;;;;5006981;28;20178;-51
2023/09/18 13:57:35;;;;;;;3.28;3.03;;;;;;;;;;5006337;28;20285;-53
2023/09/18 14:00:04;;;;;;;3.08;2.83;;;;;;;;;;5006720;28;20254;-53
2023/09/18 14:02:31;;;;;;;3.25;2.75;;;;;;;;;;5006796;28;20210;-53
2023/09/18 14:04:57;;;;;;;2.75;2.50;;;;;;;;;;5006186;28;21640;-52
2023/09/18 14:07:23;;;;;;;3.75;2.20;;;;;;;;;;4999097;28;20187;-52
2023/09/18 14:09:49;;;;;;;3.25;2.65;;;;;;;;;;5005008;28;20209;-52
2023/09/18 14:12:16;;;;;;;3.03;2.35;;;;;;;;;;5002622;28;20182;-53
2023/09/18 14:14:43;;;;;;;6.47;2.85;;;;;;;;;;5003986;28;20189;-53
2023/09/18 14:17:10;;;;;;;3.00;2.70;;;;;;;;;;5004089;28;20248;-54
2023/09/18 14:19:40;;;;;;;4.80;2.40;;;;;;;;;;5004743;28;20187;-52
2023/09/18 14:22:06;;;;;;;3.03;2.72;;;;;;;;;;5003836;28;20608;-52
2023/09/18 14:24:34;;;;;;;3.05;2.85;;;;;;;;;;5005837;28;20687;-53
2023/09/18 14:27:03;;;;;;;4.45;2.75;;;;;;;;;;5005411;28;20281;-53
2023/09/18 14:29:33;;;;;;;3.28;2.92;;;;;;;;;;5004355;28;20234;-52
2023/09/18 14:32:04;;;;;;;2.33;2.15;;;;;;;;;;5002798;28;20564;-53
2023/09/18 14:34:30;;;;;;;4.25;2.53;;;;;;;;;;5003666;28;20170;-53
2023/09/18 14:36:56;;;;;;;2.75;2.42;;;;;;;;;;5004653;28;21908;-52
2023/09/18 14:39:22;;;;;;;4.05;2.42;;;;;;;;;;5006700;28;20179;-52
2023/09/18 14:41:49;;;;;;;4.25;2.35;;;;;;;;;;5002533;28;20647;-53
2023/09/18 14:44:15;;;;;;;3.05;2.75;;;;;;;;;;5006262;28;20170;-52
2023/09/18 14:46:43;;;;;;;2.90;2.70;;;;;;;;;;5004977;28;20179;-53